sensor_id;sensor_type;location;lat;lon;timestamp;P1;durP1;ratioP1;P2;durP2;ratioP2
56161;SDS011;42045;52.986;6.014;2022-07-21T00:02:10;19.02;;;14.70;;
56161;SDS011;42045;52.986;6.014;2022-07-21T00:04:36;24.60;;;16.17;;
56161;SDS011;42045;52.986;6.014;2022-07-21T00:07:05;16.13;;;14.52;;
56161;SDS011;42045;52.986;6.014;2022-07-21T00:09:31;18.33;;;15.32;;
56161;SDS011;42045;52.986;6.014;2022-07-21T00:11:57;20.02;;;16.58;;
56161;SDS011;42045;52.986;6.014;2022-07-21T00:14:26;20.73;;;17.13;;
56161;SDS011;42045;52.986;6.014;2022-07-21T00:16:52;22.10;;;17.63;;
56161;SDS011;42045;52.986;6.014;2022-07-21T00:19:18;23.35;;;18.05;;
56161;SDS011;42045;52.986;6.014;2022-07-21T00:21:44;20.13;;;16.67;;
56161;SDS011;42045;52.986;6.014;2022-07-21T00:24:10;24.45;;;17.70;;
56161;SDS011;42045;52.986;6.014;2022-07-21T00:26:36;21.55;;;18.08;;
56161;SDS011;42045;52.986;6.014;2022-07-21T00:29:02;19.27;;;17.20;;
56161;SDS011;42045;52.986;6.014;2022-07-21T00:31:29;23.23;;;18.08;;
56161;SDS011;42045;52.986;6.014;2022-07-21T00:33:54;28.65;;;19.65;;
56161;SDS011;42045;52.986;6.014;2022-07-21T00:36:21;21.40;;;18.92;;
56161;SDS011;42045;52.986;6.014;2022-07-21T00:38:47;24.60;;;19.90;;
56161;SDS011;42045;52.986;6.014;2022-07-21T00:41:13;24.70;;;20.13;;
56161;SDS011;42045;52.986;6.014;2022-07-21T00:43:39;24.27;;;19.83;;
56161;SDS011;42045;52.986;6.014;2022-07-21T00:46:06;20.17;;;17.95;;
56161;SDS011;42045;52.986;6.014;2022-07-21T00:48:32;21.73;;;19.23;;
56161;SDS011;42045;52.986;6.014;2022-07-21T00:50:58;22.27;;;19.77;;
56161;SDS011;42045;52.986;6.014;2022-07-21T00:53:24;24.45;;;20.35;;
56161;SDS011;42045;52.986;6.014;2022-07-21T00:55:51;25.02;;;20.38;;
56161;SDS011;42045;52.986;6.014;2022-07-21T00:58:17;21.67;;;19.17;;
56161;SDS011;42045;52.986;6.014;2022-07-21T01:00:43;22.58;;;20.17;;
56161;SDS011;42045;52.986;6.014;2022-07-21T01:03:09;23.73;;;21.20;;
56161;SDS011;42045;52.986;6.014;2022-07-21T01:05:36;25.55;;;21.60;;
56161;SDS011;42045;52.986;6.014;2022-07-21T01:08:02;25.25;;;20.58;;
56161;SDS011;42045;52.986;6.014;2022-07-21T01:10:32;23.17;;;20.48;;
56161;SDS011;42045;52.986;6.014;2022-07-21T01:12:58;26.80;;;21.23;;
56161;SDS011;42045;52.986;6.014;2022-07-21T01:15:26;25.33;;;22.73;;
56161;SDS011;42045;52.986;6.014;2022-07-21T01:17:51;26.08;;;21.23;;
56161;SDS011;42045;52.986;6.014;2022-07-21T01:20:18;25.00;;;21.88;;
56161;SDS011;42045;52.986;6.014;2022-07-21T01:22:48;34.05;;;23.85;;
56161;SDS011;42045;52.986;6.014;2022-07-21T01:25:17;30.52;;;23.35;;
56161;SDS011;42045;52.986;6.014;2022-07-21T01:27:44;29.40;;;22.08;;
56161;SDS011;42045;52.986;6.014;2022-07-21T01:30:12;27.67;;;23.95;;
56161;SDS011;42045;52.986;6.014;2022-07-21T01:32:38;30.17;;;24.67;;
56161;SDS011;42045;52.986;6.014;2022-07-21T01:35:07;24.00;;;21.67;;
56161;SDS011;42045;52.986;6.014;2022-07-21T01:37:36;26.75;;;23.92;;
56161;SDS011;42045;52.986;6.014;2022-07-21T01:40:04;26.40;;;23.70;;
56161;SDS011;42045;52.986;6.014;2022-07-21T01:42:53;27.70;;;24.73;;
56161;SDS011;42045;52.986;6.014;2022-07-21T01:45:21;25.55;;;22.95;;
56161;SDS011;42045;52.986;6.014;2022-07-21T01:47:53;37.45;;;25.58;;
56161;SDS011;42045;52.986;6.014;2022-07-21T01:50:23;28.60;;;25.55;;
56161;SDS011;42045;52.986;6.014;2022-07-21T01:52:53;28.17;;;24.95;;
56161;SDS011;42045;52.986;6.014;2022-07-21T01:55:20;26.55;;;23.88;;
56161;SDS011;42045;52.986;6.014;2022-07-21T01:57:47;34.53;;;25.95;;
56161;SDS011;42045;52.986;6.014;2022-07-21T02:00:13;28.63;;;25.17;;
56161;SDS011;42045;52.986;6.014;2022-07-21T02:02:39;28.85;;;25.80;;
56161;SDS011;42045;52.986;6.014;2022-07-21T02:05:05;34.45;;;26.50;;
56161;SDS011;42045;52.986;6.014;2022-07-21T02:07:32;28.13;;;25.13;;
56161;SDS011;42045;52.986;6.014;2022-07-21T02:09:58;25.45;;;22.80;;
56161;SDS011;42045;52.986;6.014;2022-07-21T02:12:24;28.70;;;25.92;;
56161;SDS011;42045;52.986;6.014;2022-07-21T02:14:50;26.23;;;23.63;;
56161;SDS011;42045;52.986;6.014;2022-07-21T02:17:16;26.58;;;23.60;;
56161;SDS011;42045;52.986;6.014;2022-07-21T02:19:41;25.25;;;22.50;;
56161;SDS011;42045;52.986;6.014;2022-07-21T02:22:07;28.05;;;25.23;;
56161;SDS011;42045;52.986;6.014;2022-07-21T02:24:33;27.95;;;24.88;;
56161;SDS011;42045;52.986;6.014;2022-07-21T02:27:00;28.23;;;25.20;;
56161;SDS011;42045;52.986;6.014;2022-07-21T02:29:27;28.85;;;25.85;;
56161;SDS011;42045;52.986;6.014;2022-07-21T02:31:53;29.13;;;26.25;;
56161;SDS011;42045;52.986;6.014;2022-07-21T02:34:19;30.50;;;27.40;;
56161;SDS011;42045;52.986;6.014;2022-07-21T02:36:47;28.20;;;25.40;;
56161;SDS011;42045;52.986;6.014;2022-07-21T02:39:18;28.27;;;25.35;;
56161;SDS011;42045;52.986;6.014;2022-07-21T02:41:44;27.13;;;24.65;;
56161;SDS011;42045;52.986;6.014;2022-07-21T02:44:19;29.67;;;25.48;;
56161;SDS011;42045;52.986;6.014;2022-07-21T02:46:45;27.63;;;24.77;;
56161;SDS011;42045;52.986;6.014;2022-07-21T02:49:11;28.45;;;25.80;;
56161;SDS011;42045;52.986;6.014;2022-07-21T02:51:37;31.80;;;28.38;;
56161;SDS011;42045;52.986;6.014;2022-07-21T02:54:02;35.50;;;29.65;;
56161;SDS011;42045;52.986;6.014;2022-07-21T02:56:28;32.50;;;29.25;;
56161;SDS011;42045;52.986;6.014;2022-07-21T02:58:54;32.72;;;29.50;;
56161;SDS011;42045;52.986;6.014;2022-07-21T03:01:20;33.08;;;29.83;;
56161;SDS011;42045;52.986;6.014;2022-07-21T03:03:46;32.22;;;29.13;;
56161;SDS011;42045;52.986;6.014;2022-07-21T03:06:12;31.52;;;28.58;;
56161;SDS011;42045;52.986;6.014;2022-07-21T03:08:44;34.67;;;31.17;;
56161;SDS011;42045;52.986;6.014;2022-07-21T03:11:13;35.28;;;30.55;;
56161;SDS011;42045;52.986;6.014;2022-07-21T03:13:39;36.13;;;31.90;;
56161;SDS011;42045;52.986;6.014;2022-07-21T03:16:05;35.95;;;32.13;;
56161;SDS011;42045;52.986;6.014;2022-07-21T03:18:33;38.80;;;32.33;;
56161;SDS011;42045;52.986;6.014;2022-07-21T03:21:00;34.90;;;31.33;;
56161;SDS011;42045;52.986;6.014;2022-07-21T03:23:26;32.88;;;29.80;;
56161;SDS011;42045;52.986;6.014;2022-07-21T03:25:52;37.00;;;33.20;;
56161;SDS011;42045;52.986;6.014;2022-07-21T03:28:18;43.95;;;35.30;;
56161;SDS011;42045;52.986;6.014;2022-07-21T03:30:44;36.25;;;32.83;;
56161;SDS011;42045;52.986;6.014;2022-07-21T03:33:13;33.30;;;30.30;;
56161;SDS011;42045;52.986;6.014;2022-07-21T03:35:39;33.78;;;30.52;;
56161;SDS011;42045;52.986;6.014;2022-07-21T03:38:05;33.05;;;29.95;;
56161;SDS011;42045;52.986;6.014;2022-07-21T03:40:32;33.83;;;30.52;;
56161;SDS011;42045;52.986;6.014;2022-07-21T03:43:05;33.55;;;30.45;;
56161;SDS011;42045;52.986;6.014;2022-07-21T03:45:32;32.47;;;29.35;;
56161;SDS011;42045;52.986;6.014;2022-07-21T03:48:00;31.52;;;28.42;;
56161;SDS011;42045;52.986;6.014;2022-07-21T03:50:28;31.98;;;28.70;;
56161;SDS011;42045;52.986;6.014;2022-07-21T03:52:55;31.48;;;28.67;;
56161;SDS011;42045;52.986;6.014;2022-07-21T03:55:21;29.95;;;27.25;;
56161;SDS011;42045;52.986;6.014;2022-07-21T03:57:49;30.73;;;27.92;;
56161;SDS011;42045;52.986;6.014;2022-07-21T04:00:28;31.02;;;27.63;;
56161;SDS011;42045;52.986;6.014;2022-07-21T04:02:56;29.70;;;26.98;;
56161;SDS011;42045;52.986;6.014;2022-07-21T04:05:22;29.08;;;26.40;;
56161;SDS011;42045;52.986;6.014;2022-07-21T04:07:49;29.75;;;26.85;;
56161;SDS011;42045;52.986;6.014;2022-07-21T04:10:18;29.02;;;26.42;;
56161;SDS011;42045;52.986;6.014;2022-07-21T04:12:45;28.88;;;26.38;;
56161;SDS011;42045;52.986;6.014;2022-07-21T04:15:12;28.75;;;26.05;;
56161;SDS011;42045;52.986;6.014;2022-07-21T04:17:39;29.00;;;26.40;;
56161;SDS011;42045;52.986;6.014;2022-07-21T04:20:09;28.45;;;25.88;;
56161;SDS011;42045;52.986;6.014;2022-07-21T04:22:42;29.63;;;26.77;;
56161;SDS011;42045;52.986;6.014;2022-07-21T04:25:09;30.48;;;27.55;;
56161;SDS011;42045;52.986;6.014;2022-07-21T04:27:35;31.00;;;27.88;;
56161;SDS011;42045;52.986;6.014;2022-07-21T04:30:03;29.98;;;27.17;;
56161;SDS011;42045;52.986;6.014;2022-07-21T04:32:30;31.77;;;28.88;;
56161;SDS011;42045;52.986;6.014;2022-07-21T04:34:56;31.77;;;28.88;;
56161;SDS011;42045;52.986;6.014;2022-07-21T04:37:22;29.70;;;26.95;;
56161;SDS011;42045;52.986;6.014;2022-07-21T04:39:48;31.05;;;27.77;;
56161;SDS011;42045;52.986;6.014;2022-07-21T04:42:14;31.33;;;28.42;;
56161;SDS011;42045;52.986;6.014;2022-07-21T04:44:39;29.70;;;26.77;;
56161;SDS011;42045;52.986;6.014;2022-07-21T04:47:05;30.48;;;27.60;;
56161;SDS011;42045;52.986;6.014;2022-07-21T04:49:31;31.40;;;28.42;;
56161;SDS011;42045;52.986;6.014;2022-07-21T04:51:57;30.65;;;27.83;;
56161;SDS011;42045;52.986;6.014;2022-07-21T04:54:23;31.67;;;28.67;;
56161;SDS011;42045;52.986;6.014;2022-07-21T04:56:49;31.77;;;28.65;;
56161;SDS011;42045;52.986;6.014;2022-07-21T04:59:15;31.35;;;28.50;;
56161;SDS011;42045;52.986;6.014;2022-07-21T05:01:41;31.95;;;29.02;;
56161;SDS011;42045;52.986;6.014;2022-07-21T05:04:07;32.00;;;29.08;;
56161;SDS011;42045;52.986;6.014;2022-07-21T05:06:33;32.25;;;29.30;;
56161;SDS011;42045;52.986;6.014;2022-07-21T05:09:10;31.10;;;28.23;;
56161;SDS011;42045;52.986;6.014;2022-07-21T05:11:36;31.85;;;29.00;;
56161;SDS011;42045;52.986;6.014;2022-07-21T05:14:02;31.55;;;28.75;;
56161;SDS011;42045;52.986;6.014;2022-07-21T05:16:37;29.40;;;26.73;;
56161;SDS011;42045;52.986;6.014;2022-07-21T05:19:03;30.88;;;28.08;;
56161;SDS011;42045;52.986;6.014;2022-07-21T05:21:29;31.02;;;28.23;;
56161;SDS011;42045;52.986;6.014;2022-07-21T05:23:55;31.98;;;28.92;;
56161;SDS011;42045;52.986;6.014;2022-07-21T05:26:21;30.33;;;27.65;;
56161;SDS011;42045;52.986;6.014;2022-07-21T05:28:50;30.65;;;27.75;;
56161;SDS011;42045;52.986;6.014;2022-07-21T05:31:16;30.48;;;27.67;;
56161;SDS011;42045;52.986;6.014;2022-07-21T05:33:42;30.77;;;27.98;;
56161;SDS011;42045;52.986;6.014;2022-07-21T05:36:20;32.05;;;29.08;;
56161;SDS011;42045;52.986;6.014;2022-07-21T05:38:51;32.28;;;29.33;;
56161;SDS011;42045;52.986;6.014;2022-07-21T05:41:16;34.28;;;30.85;;
56161;SDS011;42045;52.986;6.014;2022-07-21T05:43:42;33.05;;;30.13;;
56161;SDS011;42045;52.986;6.014;2022-07-21T05:46:10;32.63;;;29.63;;
56161;SDS011;42045;52.986;6.014;2022-07-21T05:48:41;33.85;;;30.63;;
56161;SDS011;42045;52.986;6.014;2022-07-21T05:51:07;34.35;;;31.35;;
56161;SDS011;42045;52.986;6.014;2022-07-21T05:53:33;35.00;;;31.70;;
56161;SDS011;42045;52.986;6.014;2022-07-21T05:55:59;33.20;;;29.95;;
56161;SDS011;42045;52.986;6.014;2022-07-21T05:58:25;32.55;;;29.45;;
56161;SDS011;42045;52.986;6.014;2022-07-21T06:00:57;32.92;;;29.85;;
56161;SDS011;42045;52.986;6.014;2022-07-21T06:03:40;33.33;;;30.38;;
56161;SDS011;42045;52.986;6.014;2022-07-21T06:06:11;30.52;;;27.85;;
56161;SDS011;42045;52.986;6.014;2022-07-21T06:08:39;33.13;;;30.05;;
56161;SDS011;42045;52.986;6.014;2022-07-21T06:11:09;33.55;;;30.40;;
56161;SDS011;42045;52.986;6.014;2022-07-21T06:13:37;35.85;;;32.55;;
56161;SDS011;42045;52.986;6.014;2022-07-21T06:16:06;32.30;;;29.30;;
56161;SDS011;42045;52.986;6.014;2022-07-21T06:18:32;32.08;;;29.15;;
56161;SDS011;42045;52.986;6.014;2022-07-21T06:20:59;31.23;;;28.38;;
56161;SDS011;42045;52.986;6.014;2022-07-21T06:23:26;33.50;;;30.25;;
56161;SDS011;42045;52.986;6.014;2022-07-21T06:25:52;35.65;;;32.47;;
56161;SDS011;42045;52.986;6.014;2022-07-21T06:28:22;33.20;;;29.85;;
56161;SDS011;42045;52.986;6.014;2022-07-21T06:30:48;33.40;;;30.30;;
56161;SDS011;42045;52.986;6.014;2022-07-21T06:33:15;32.85;;;29.67;;
56161;SDS011;42045;52.986;6.014;2022-07-21T06:35:41;32.53;;;29.33;;
56161;SDS011;42045;52.986;6.014;2022-07-21T06:38:07;32.58;;;29.75;;
56161;SDS011;42045;52.986;6.014;2022-07-21T06:40:33;33.95;;;30.98;;
56161;SDS011;42045;52.986;6.014;2022-07-21T06:42:59;33.95;;;30.95;;
56161;SDS011;42045;52.986;6.014;2022-07-21T06:45:25;32.45;;;29.60;;
56161;SDS011;42045;52.986;6.014;2022-07-21T06:47:58;31.92;;;29.02;;
56161;SDS011;42045;52.986;6.014;2022-07-21T06:50:26;33.10;;;30.23;;
56161;SDS011;42045;52.986;6.014;2022-07-21T06:52:51;33.78;;;30.48;;
56161;SDS011;42045;52.986;6.014;2022-07-21T06:55:18;32.42;;;29.48;;
56161;SDS011;42045;52.986;6.014;2022-07-21T06:57:45;33.25;;;30.08;;
56161;SDS011;42045;52.986;6.014;2022-07-21T07:00:16;34.38;;;31.48;;
56161;SDS011;42045;52.986;6.014;2022-07-21T07:02:42;31.25;;;28.65;;
56161;SDS011;42045;52.986;6.014;2022-07-21T07:05:08;32.13;;;29.30;;
56161;SDS011;42045;52.986;6.014;2022-07-21T07:07:34;34.63;;;31.60;;
56161;SDS011;42045;52.986;6.014;2022-07-21T07:10:01;34.63;;;31.38;;
56161;SDS011;42045;52.986;6.014;2022-07-21T07:12:28;35.60;;;32.30;;
56161;SDS011;42045;52.986;6.014;2022-07-21T07:14:54;34.05;;;31.00;;
56161;SDS011;42045;52.986;6.014;2022-07-21T07:17:23;35.55;;;32.15;;
56161;SDS011;42045;52.986;6.014;2022-07-21T07:19:49;36.28;;;33.00;;
56161;SDS011;42045;52.986;6.014;2022-07-21T07:22:15;35.20;;;32.05;;
56161;SDS011;42045;52.986;6.014;2022-07-21T07:24:41;37.83;;;34.10;;
56161;SDS011;42045;52.986;6.014;2022-07-21T07:27:12;39.05;;;35.20;;
56161;SDS011;42045;52.986;6.014;2022-07-21T07:29:38;41.00;;;37.05;;
56161;SDS011;42045;52.986;6.014;2022-07-21T07:32:04;38.60;;;34.88;;
56161;SDS011;42045;52.986;6.014;2022-07-21T07:34:30;38.75;;;34.97;;
56161;SDS011;42045;52.986;6.014;2022-07-21T07:36:57;39.97;;;36.22;;
56161;SDS011;42045;52.986;6.014;2022-07-21T07:39:23;43.50;;;39.08;;
56161;SDS011;42045;52.986;6.014;2022-07-21T07:41:49;44.28;;;39.47;;
56161;SDS011;42045;52.986;6.014;2022-07-21T07:44:15;44.92;;;40.13;;
56161;SDS011;42045;52.986;6.014;2022-07-21T07:46:41;46.45;;;41.45;;
56161;SDS011;42045;52.986;6.014;2022-07-21T07:49:07;47.67;;;42.70;;
56161;SDS011;42045;52.986;6.014;2022-07-21T07:51:34;48.30;;;43.30;;
56161;SDS011;42045;52.986;6.014;2022-07-21T07:54:00;47.83;;;43.17;;
56161;SDS011;42045;52.986;6.014;2022-07-21T07:56:29;50.40;;;45.60;;
56161;SDS011;42045;52.986;6.014;2022-07-21T07:58:58;49.03;;;44.38;;
56161;SDS011;42045;52.986;6.014;2022-07-21T08:01:24;50.30;;;45.58;;
56161;SDS011;42045;52.986;6.014;2022-07-21T08:03:53;52.45;;;47.42;;
56161;SDS011;42045;52.986;6.014;2022-07-21T08:06:22;52.97;;;48.17;;
56161;SDS011;42045;52.986;6.014;2022-07-21T08:08:48;50.85;;;45.88;;
56161;SDS011;42045;52.986;6.014;2022-07-21T08:11:14;53.20;;;48.35;;
56161;SDS011;42045;52.986;6.014;2022-07-21T08:13:40;56.08;;;50.92;;
56161;SDS011;42045;52.986;6.014;2022-07-21T08:16:08;58.30;;;52.42;;
56161;SDS011;42045;52.986;6.014;2022-07-21T08:18:34;57.80;;;52.47;;
56161;SDS011;42045;52.986;6.014;2022-07-21T08:21:00;58.53;;;52.90;;
56161;SDS011;42045;52.986;6.014;2022-07-21T08:23:26;58.10;;;52.47;;
56161;SDS011;42045;52.986;6.014;2022-07-21T08:25:52;58.05;;;52.25;;
56161;SDS011;42045;52.986;6.014;2022-07-21T08:28:23;59.00;;;53.20;;
56161;SDS011;42045;52.986;6.014;2022-07-21T08:30:49;56.13;;;50.97;;
56161;SDS011;42045;52.986;6.014;2022-07-21T08:33:14;60.08;;;54.25;;
56161;SDS011;42045;52.986;6.014;2022-07-21T08:35:40;59.20;;;53.38;;
56161;SDS011;42045;52.986;6.014;2022-07-21T08:38:07;59.35;;;53.83;;
56161;SDS011;42045;52.986;6.014;2022-07-21T08:40:35;61.10;;;54.83;;
56161;SDS011;42045;52.986;6.014;2022-07-21T08:43:04;60.33;;;54.47;;
56161;SDS011;42045;52.986;6.014;2022-07-21T08:45:31;66.15;;;59.72;;
56161;SDS011;42045;52.986;6.014;2022-07-21T08:47:58;64.63;;;58.28;;
56161;SDS011;42045;52.986;6.014;2022-07-21T08:50:26;67.25;;;60.78;;
56161;SDS011;42045;52.986;6.014;2022-07-21T08:52:53;67.82;;;61.28;;
56161;SDS011;42045;52.986;6.014;2022-07-21T08:55:20;67.43;;;61.08;;
56161;SDS011;42045;52.986;6.014;2022-07-21T08:57:46;68.50;;;62.08;;
56161;SDS011;42045;52.986;6.014;2022-07-21T09:00:12;63.88;;;57.97;;
56161;SDS011;42045;52.986;6.014;2022-07-21T09:02:39;65.43;;;59.33;;
56161;SDS011;42045;52.986;6.014;2022-07-21T09:05:06;66.47;;;59.78;;
56161;SDS011;42045;52.986;6.014;2022-07-21T09:10:32;65.65;;;59.08;;
56161;SDS011;42045;52.986;6.014;2022-07-21T09:13:00;68.47;;;61.53;;
56161;SDS011;42045;52.986;6.014;2022-07-21T09:15:33;65.07;;;58.53;;
56161;SDS011;42045;52.986;6.014;2022-07-21T09:18:10;65.78;;;59.60;;
56161;SDS011;42045;52.986;6.014;2022-07-21T09:20:50;62.42;;;56.20;;
56161;SDS011;42045;52.986;6.014;2022-07-21T09:23:19;60.65;;;54.78;;
56161;SDS011;42045;52.986;6.014;2022-07-21T09:25:52;62.45;;;56.10;;
56161;SDS011;42045;52.986;6.014;2022-07-21T09:28:20;56.45;;;51.17;;
56161;SDS011;42045;52.986;6.014;2022-07-21T09:30:49;57.38;;;51.85;;
56161;SDS011;42045;52.986;6.014;2022-07-21T09:33:20;54.88;;;49.70;;
56161;SDS011;42045;52.986;6.014;2022-07-21T09:35:55;53.92;;;48.80;;
56161;SDS011;42045;52.986;6.014;2022-07-21T09:38:22;53.33;;;48.05;;
56161;SDS011;42045;52.986;6.014;2022-07-21T09:40:49;54.17;;;49.10;;
56161;SDS011;42045;52.986;6.014;2022-07-21T09:43:31;55.58;;;50.28;;
56161;SDS011;42045;52.986;6.014;2022-07-21T09:46:08;54.13;;;49.00;;
56161;SDS011;42045;52.986;6.014;2022-07-21T09:48:56;44.67;;;40.58;;
56161;SDS011;42045;52.986;6.014;2022-07-21T09:51:29;35.70;;;32.30;;
56161;SDS011;42045;52.986;6.014;2022-07-21T09:53:58;30.95;;;27.95;;
56161;SDS011;42045;52.986;6.014;2022-07-21T09:56:24;29.15;;;26.42;;
56161;SDS011;42045;52.986;6.014;2022-07-21T09:58:53;30.05;;;27.17;;
56161;SDS011;42045;52.986;6.014;2022-07-21T10:01:20;25.75;;;23.35;;
56161;SDS011;42045;52.986;6.014;2022-07-21T10:03:47;25.77;;;23.50;;
56161;SDS011;42045;52.986;6.014;2022-07-21T10:06:17;23.23;;;20.90;;
56161;SDS011;42045;52.986;6.014;2022-07-21T10:08:45;22.63;;;20.30;;
56161;SDS011;42045;52.986;6.014;2022-07-21T10:11:11;21.75;;;19.77;;
56161;SDS011;42045;52.986;6.014;2022-07-21T10:13:38;23.92;;;21.42;;
56161;SDS011;42045;52.986;6.014;2022-07-21T10:16:05;25.63;;;23.25;;
56161;SDS011;42045;52.986;6.014;2022-07-21T10:18:45;26.05;;;23.75;;
56161;SDS011;42045;52.986;6.014;2022-07-21T10:23:52;27.15;;;24.42;;
56161;SDS011;42045;52.986;6.014;2022-07-21T10:26:20;27.95;;;25.42;;
56161;SDS011;42045;52.986;6.014;2022-07-21T10:28:47;26.80;;;24.33;;
56161;SDS011;42045;52.986;6.014;2022-07-21T10:31:14;26.65;;;24.20;;
56161;SDS011;42045;52.986;6.014;2022-07-21T10:33:52;29.98;;;27.17;;
56161;SDS011;42045;52.986;6.014;2022-07-21T10:41:56;27.38;;;24.77;;
56161;SDS011;42045;52.986;6.014;2022-07-21T10:47:02;23.80;;;21.77;;
56161;SDS011;42045;52.986;6.014;2022-07-21T10:49:53;23.85;;;21.58;;
56161;SDS011;42045;52.986;6.014;2022-07-21T10:57:40;24.33;;;22.05;;
56161;SDS011;42045;52.986;6.014;2022-07-21T11:00:28;23.48;;;21.38;;
56161;SDS011;42045;52.986;6.014;2022-07-21T11:02:58;23.05;;;21.05;;
56161;SDS011;42045;52.986;6.014;2022-07-21T11:05:27;22.92;;;20.95;;
56161;SDS011;42045;52.986;6.014;2022-07-21T11:08:14;23.65;;;21.65;;
56161;SDS011;42045;52.986;6.014;2022-07-21T11:10:46;24.85;;;22.63;;
56161;SDS011;42045;52.986;6.014;2022-07-21T11:13:18;24.88;;;22.77;;
56161;SDS011;42045;52.986;6.014;2022-07-21T11:18:21;25.88;;;23.52;;
56161;SDS011;42045;52.986;6.014;2022-07-21T11:26:13;23.05;;;21.08;;
56161;SDS011;42045;52.986;6.014;2022-07-21T11:28:41;24.42;;;22.33;;
56161;SDS011;42045;52.986;6.014;2022-07-21T11:31:18;24.38;;;22.38;;
56161;SDS011;42045;52.986;6.014;2022-07-21T11:33:49;23.42;;;21.45;;
56161;SDS011;42045;52.986;6.014;2022-07-21T11:36:22;25.08;;;22.98;;
56161;SDS011;42045;52.986;6.014;2022-07-21T11:38:56;23.70;;;21.90;;
56161;SDS011;42045;52.986;6.014;2022-07-21T11:41:33;23.58;;;21.67;;
56161;SDS011;42045;52.986;6.014;2022-07-21T11:44:07;24.80;;;22.33;;
56161;SDS011;42045;52.986;6.014;2022-07-21T11:49:13;25.05;;;22.95;;
56161;SDS011;42045;52.986;6.014;2022-07-21T11:51:45;23.02;;;21.13;;
56161;SDS011;42045;52.986;6.014;2022-07-21T11:54:22;25.17;;;23.08;;
56161;SDS011;42045;52.986;6.014;2022-07-21T11:57:00;27.13;;;24.67;;
56161;SDS011;42045;52.986;6.014;2022-07-21T11:59:28;24.73;;;22.38;;
56161;SDS011;42045;52.986;6.014;2022-07-21T12:01:59;20.92;;;18.92;;
56161;SDS011;42045;52.986;6.014;2022-07-21T12:07:14;19.77;;;18.13;;
56161;SDS011;42045;52.986;6.014;2022-07-21T12:09:59;18.23;;;16.52;;
56161;SDS011;42045;52.986;6.014;2022-07-21T12:12:47;17.42;;;16.02;;
56161;SDS011;42045;52.986;6.014;2022-07-21T12:15:15;18.50;;;16.90;;
56161;SDS011;42045;52.986;6.014;2022-07-21T12:17:43;18.52;;;17.05;;
56161;SDS011;42045;52.986;6.014;2022-07-21T12:20:36;20.05;;;18.42;;
56161;SDS011;42045;52.986;6.014;2022-07-21T12:23:24;20.80;;;19.02;;
56161;SDS011;42045;52.986;6.014;2022-07-21T12:25:54;19.10;;;17.38;;
56161;SDS011;42045;52.986;6.014;2022-07-21T12:28:40;19.83;;;18.23;;
56161;SDS011;42045;52.986;6.014;2022-07-21T12:31:20;19.02;;;17.52;;
56161;SDS011;42045;52.986;6.014;2022-07-21T12:33:51;20.20;;;18.60;;
56161;SDS011;42045;52.986;6.014;2022-07-21T12:36:21;20.75;;;19.10;;
56161;SDS011;42045;52.986;6.014;2022-07-21T12:38:47;21.75;;;19.92;;
56161;SDS011;42045;52.986;6.014;2022-07-21T12:41:17;21.08;;;19.27;;
56161;SDS011;42045;52.986;6.014;2022-07-21T12:43:57;21.25;;;19.63;;
56161;SDS011;42045;52.986;6.014;2022-07-21T12:46:36;22.80;;;20.50;;
56161;SDS011;42045;52.986;6.014;2022-07-21T12:49:10;21.48;;;19.67;;
56161;SDS011;42045;52.986;6.014;2022-07-21T12:51:36;21.60;;;19.70;;
56161;SDS011;42045;52.986;6.014;2022-07-21T12:54:07;21.20;;;19.15;;
56161;SDS011;42045;52.986;6.014;2022-07-21T12:56:34;22.67;;;20.80;;
56161;SDS011;42045;52.986;6.014;2022-07-21T12:59:02;21.80;;;19.98;;
56161;SDS011;42045;52.986;6.014;2022-07-21T13:01:29;21.85;;;19.95;;
56161;SDS011;42045;52.986;6.014;2022-07-21T13:03:56;20.20;;;18.42;;
56161;SDS011;42045;52.986;6.014;2022-07-21T13:06:37;20.63;;;18.83;;
56161;SDS011;42045;52.986;6.014;2022-07-21T13:09:03;19.98;;;18.27;;
56161;SDS011;42045;52.986;6.014;2022-07-21T13:11:29;20.90;;;19.00;;
56161;SDS011;42045;52.986;6.014;2022-07-21T13:13:55;21.98;;;20.17;;
56161;SDS011;42045;52.986;6.014;2022-07-21T13:16:25;20.58;;;18.77;;
56161;SDS011;42045;52.986;6.014;2022-07-21T13:18:50;22.42;;;20.42;;
56161;SDS011;42045;52.986;6.014;2022-07-21T13:21:17;21.88;;;19.95;;
56161;SDS011;42045;52.986;6.014;2022-07-21T13:23:43;20.88;;;18.95;;
56161;SDS011;42045;52.986;6.014;2022-07-21T13:26:09;20.65;;;18.75;;
56161;SDS011;42045;52.986;6.014;2022-07-21T13:28:35;20.05;;;18.25;;
56161;SDS011;42045;52.986;6.014;2022-07-21T13:31:01;19.85;;;17.85;;
56161;SDS011;42045;52.986;6.014;2022-07-21T13:33:26;18.77;;;17.17;;
56161;SDS011;42045;52.986;6.014;2022-07-21T13:35:52;19.38;;;17.73;;
56161;SDS011;42045;52.986;6.014;2022-07-21T13:38:18;18.02;;;16.55;;
56161;SDS011;42045;52.986;6.014;2022-07-21T13:40:44;17.88;;;16.02;;
56161;SDS011;42045;52.986;6.014;2022-07-21T13:43:09;17.65;;;16.05;;
56161;SDS011;42045;52.986;6.014;2022-07-21T13:45:38;19.55;;;17.63;;
56161;SDS011;42045;52.986;6.014;2022-07-21T13:48:04;16.48;;;15.07;;
56161;SDS011;42045;52.986;6.014;2022-07-21T13:50:29;17.35;;;15.82;;
56161;SDS011;42045;52.986;6.014;2022-07-21T13:52:55;16.67;;;15.05;;
56161;SDS011;42045;52.986;6.014;2022-07-21T13:55:21;16.45;;;15.05;;
56161;SDS011;42045;52.986;6.014;2022-07-21T13:57:47;17.88;;;16.35;;
56161;SDS011;42045;52.986;6.014;2022-07-21T14:00:13;18.17;;;16.67;;
56161;SDS011;42045;52.986;6.014;2022-07-21T14:02:39;17.65;;;15.90;;
56161;SDS011;42045;52.986;6.014;2022-07-21T14:05:06;15.52;;;14.00;;
56161;SDS011;42045;52.986;6.014;2022-07-21T14:07:33;18.45;;;16.88;;
56161;SDS011;42045;52.986;6.014;2022-07-21T14:09:59;17.55;;;15.75;;
56161;SDS011;42045;52.986;6.014;2022-07-21T14:12:25;15.82;;;14.50;;
56161;SDS011;42045;52.986;6.014;2022-07-21T14:14:51;16.08;;;14.57;;
56161;SDS011;42045;52.986;6.014;2022-07-21T14:17:17;17.10;;;15.50;;
56161;SDS011;42045;52.986;6.014;2022-07-21T14:19:43;16.65;;;15.25;;
56161;SDS011;42045;52.986;6.014;2022-07-21T14:22:11;15.38;;;13.77;;
56161;SDS011;42045;52.986;6.014;2022-07-21T14:24:38;16.48;;;14.88;;
56161;SDS011;42045;52.986;6.014;2022-07-21T14:27:22;15.82;;;14.50;;
56161;SDS011;42045;52.986;6.014;2022-07-21T14:29:48;15.75;;;14.25;;
56161;SDS011;42045;52.986;6.014;2022-07-21T14:32:14;16.27;;;14.88;;
56161;SDS011;42045;52.986;6.014;2022-07-21T14:34:41;16.55;;;15.07;;
56161;SDS011;42045;52.986;6.014;2022-07-21T14:37:07;16.05;;;14.82;;
56161;SDS011;42045;52.986;6.014;2022-07-21T14:39:33;15.45;;;14.15;;
56161;SDS011;42045;52.986;6.014;2022-07-21T14:42:11;17.08;;;15.48;;
56161;SDS011;42045;52.986;6.014;2022-07-21T14:44:36;15.00;;;13.73;;
56161;SDS011;42045;52.986;6.014;2022-07-21T14:47:02;15.85;;;14.55;;
56161;SDS011;42045;52.986;6.014;2022-07-21T14:49:29;13.43;;;12.32;;
56161;SDS011;42045;52.986;6.014;2022-07-21T14:51:54;14.13;;;12.80;;
56161;SDS011;42045;52.986;6.014;2022-07-21T14:54:20;12.95;;;11.82;;
56161;SDS011;42045;52.986;6.014;2022-07-21T14:56:46;12.20;;;11.15;;
56161;SDS011;42045;52.986;6.014;2022-07-21T14:59:12;13.35;;;11.95;;
56161;SDS011;42045;52.986;6.014;2022-07-21T15:01:38;11.88;;;10.77;;